createdAt,value
2018-04-22T00:01:12.339Z,100380.45
2018-04-22T00:03:37.903Z,100382.07
2018-04-22T00:06:03.709Z,100373.77
2018-04-22T00:08:29.442Z,100376.50
2018-04-22T00:10:55.011Z,100374.12
2018-04-22T00:13:20.764Z,100373.72
2018-04-22T00:15:46.324Z,100372.14
2018-04-22T00:18:11.883Z,100369.37
2018-04-22T00:20:37.695Z,100365.78
2018-04-22T00:23:03.300Z,100357.95
2018-04-22T00:25:28.831Z,100358.31
2018-04-22T00:27:54.592Z,100358.31
2018-04-22T00:30:20.194Z,100348.03
2018-04-22T00:32:45.741Z,100349.69
2018-04-22T00:35:11.503Z,100347.28
2018-04-22T00:37:37.215Z,100346.08
2018-04-22T00:40:02.767Z,100339.42
2018-04-22T00:42:28.498Z,100334.70
2018-04-22T00:44:54.037Z,100336.22
2018-04-22T00:47:19.602Z,100340.92
2018-04-22T00:49:45.408Z,100338.95
2018-04-22T00:52:11.089Z,100334.27
2018-04-22T00:54:36.642Z,100324.40
2018-04-22T00:57:02.441Z,100324.39
2018-04-22T00:59:27.994Z,100328.36
2018-04-22T01:01:53.779Z,100326.33
2018-04-22T01:04:19.473Z,100331.80
2018-04-22T01:06:45.028Z,100328.09
2018-04-22T01:09:10.623Z,100331.51
2018-04-22T01:11:37.316Z,100325.53
2018-04-22T01:14:02.865Z,100330.14
2018-04-22T01:16:28.404Z,100334.08
2018-04-22T01:18:54.195Z,100331.95
2018-04-22T01:21:19.758Z,100323.80
2018-04-22T01:23:45.321Z,100331.30
2018-04-22T01:26:11.075Z,100329.52
2018-04-22T01:28:36.616Z,100323.11
2018-04-22T08:12:13.034Z,100340.73
2018-04-22T08:14:38.560Z,100340.73
2018-04-22T08:17:04.140Z,100338.36
2018-04-22T08:19:29.870Z,100342.32
2018-04-22T08:21:55.619Z,100340.73
2018-04-22T08:24:21.111Z,100344.70
2018-04-22T08:26:46.703Z,100344.30
2018-04-22T08:29:12.387Z,100334.41
2018-04-22T08:31:38.058Z,100332.84
2018-04-22T08:34:04.966Z,100331.23
2018-04-22T08:36:41.065Z,100331.63
2018-04-22T08:39:07.021Z,100332.03
2018-04-22T08:41:51.398Z,100335.14
2018-04-22T08:44:16.949Z,100320.88
2018-04-22T08:46:42.507Z,100327.92
2018-04-22T08:49:08.189Z,100326.79
2018-04-22T08:51:33.750Z,100325.97
2018-04-22T08:53:59.292Z,100338.98
2018-04-22T08:56:24.994Z,100332.20
2018-04-22T08:58:50.600Z,100321.55
2018-04-22T09:01:16.138Z,100332.94
2018-04-22T09:03:41.863Z,100334.89
2018-04-22T09:06:07.564Z,100327.36
2018-04-22T09:08:33.117Z,100331.30
2018-04-22T09:10:58.798Z,100329.73
2018-04-22T09:13:24.358Z,100334.45
2018-04-22T09:15:49.921Z,100326.84
2018-04-22T09:18:15.593Z,100322.31
2018-04-22T09:20:41.290Z,100319.31
2018-04-22T09:23:06.863Z,100328.73
2018-04-22T09:25:32.553Z,100325.19
2018-04-22T09:27:58.156Z,100321.30
2018-04-22T09:30:23.654Z,100318.20
2018-04-22T09:32:49.409Z,100308.61
2018-04-22T09:35:15.099Z,100312.44
2018-04-22T09:37:40.657Z,100303.83
2018-04-22T09:40:06.356Z,100301.89
2018-04-22T09:42:31.922Z,100305.01
2018-04-22T09:44:57.484Z,100293.34
2018-04-22T09:47:23.185Z,100305.16
2018-04-22T09:49:48.791Z,100298.17
2018-04-22T09:52:14.299Z,100303.91
2018-04-22T09:54:39.998Z,100297.03
2018-04-22T09:57:05.548Z,100300.48
2018-04-22T09:59:31.244Z,100285.99
2018-04-22T10:01:59.642Z,100293.44
2018-04-22T10:04:28.021Z,100291.20
2018-04-22T10:06:53.586Z,100291.11
2018-04-22T10:09:19.284Z,100295.02
2018-04-22T10:11:44.844Z,100280.14
2018-04-22T10:14:10.381Z,100280.91
2018-04-22T10:16:36.126Z,100275.94
2018-04-22T10:19:01.655Z,100267.20
2018-04-22T10:21:27.199Z,100269.77
2018-04-22T10:23:52.877Z,100260.77
2018-04-22T10:26:18.513Z,100259.12
2018-04-22T10:28:44.069Z,100260.98
2018-04-22T10:31:10.082Z,100253.55
2018-04-22T10:33:35.632Z,100246.70
2018-04-22T10:36:01.192Z,100249.19
2018-04-22T10:38:26.888Z,100243.63
2018-04-22T10:40:52.491Z,100246.91
2018-04-22T10:43:18.045Z,100236.80
2018-04-22T10:45:43.745Z,100236.91
2018-04-22T10:48:09.294Z,100228.48
2018-04-22T10:50:34.880Z,100228.58
2018-04-22T10:53:00.560Z,100223.41
2018-04-22T10:55:26.133Z,100225.19
2018-04-22T10:57:51.749Z,100226.77
2018-04-22T11:00:17.527Z,100216.40
2018-04-22T11:02:43.073Z,100227.38
2018-04-22T11:05:08.649Z,100217.88
2018-04-22T11:07:34.361Z,100215.64
2018-04-22T11:09:59.910Z,100213.81
2018-04-22T11:12:25.460Z,100210.07
2018-04-22T11:14:51.185Z,100203.55
2018-04-22T11:17:16.729Z,100207.92
2018-04-22T11:19:42.439Z,100202.69
2018-04-22T11:22:08.165Z,100203.39
2018-04-22T11:24:33.840Z,100195.20
2018-04-22T11:26:59.421Z,100193.09
2018-04-22T11:29:25.150Z,100189.52
2018-04-22T11:31:50.771Z,100198.05
2018-04-22T11:34:16.328Z,100197.64
2018-04-22T11:36:42.031Z,100190.80
2018-04-22T11:39:07.731Z,100187.02
2018-04-22T11:41:33.299Z,100189.31
2018-04-22T11:43:58.920Z,100188.20
2018-04-22T11:46:24.632Z,100188.50
2018-04-22T11:48:50.198Z,100177.97
2018-04-22T11:51:15.903Z,100186.39
2018-04-22T11:53:41.587Z,100179.41
2018-04-22T11:56:07.336Z,100179.16
2018-04-22T11:58:32.895Z,100176.58
2018-04-22T12:00:58.579Z,100171.16
2018-04-22T12:03:24.122Z,100176.63
2018-04-22T12:05:49.677Z,100173.20
2018-04-22T12:08:15.372Z,100164.92
2018-04-22T12:10:40.913Z,100165.80
2018-04-22T12:13:06.651Z,100170.72
2018-04-22T12:15:32.336Z,100155.75
2018-04-22T12:17:57.902Z,100161.09
2018-04-22T12:20:23.618Z,100157.41
2018-04-22T12:22:49.278Z,100149.54
2018-04-22T12:25:14.823Z,100149.17
2018-04-22T12:27:40.546Z,100147.89
2018-04-22T12:30:06.337Z,100143.00
2018-04-22T12:32:31.934Z,100140.12
2018-04-22T12:34:57.649Z,100133.70
2018-04-22T12:37:23.206Z,100133.19
2018-04-22T12:39:48.785Z,100128.87
2018-04-22T12:42:14.494Z,100130.28
2018-04-22T12:44:40.048Z,100127.85
2018-04-22T12:47:05.588Z,100119.38
2018-04-22T12:49:31.295Z,100115.95
2018-04-22T12:51:57.000Z,100109.90
2018-04-22T12:54:22.579Z,100108.28
2018-04-22T12:56:48.126Z,100100.05
2018-04-22T12:59:14.180Z,100110.81
2018-04-22T13:01:39.731Z,100106.95
2018-04-22T13:04:05.294Z,100106.51
2018-04-22T13:06:31.074Z,100103.56
2018-04-22T13:08:56.652Z,100099.23
2018-04-22T13:11:22.184Z,100089.33
2018-04-22T13:13:47.893Z,100087.52
2018-04-22T13:16:13.517Z,100088.29
2018-04-22T13:18:39.066Z,100075.87
2018-04-22T13:21:05.003Z,100074.80
2018-04-22T13:23:30.608Z,100070.48
2018-04-22T13:25:56.168Z,100065.80
2018-04-22T13:28:21.856Z,100065.66
2018-04-22T13:30:47.395Z,100062.00
2018-04-22T13:33:12.948Z,100057.46
2018-04-22T13:35:38.632Z,100050.28
2018-04-22T13:38:04.192Z,100043.14
2018-04-22T13:40:29.739Z,100048.11
2018-04-22T13:42:55.462Z,100037.05
2018-04-22T13:45:24.140Z,100040.16
2018-04-22T13:47:49.696Z,100039.37
2018-04-22T13:50:15.685Z,100037.67
2018-04-22T13:52:41.233Z,100026.28
2018-04-22T13:55:06.798Z,100021.31
2018-04-22T13:57:32.512Z,100018.34
2018-04-22T13:59:58.053Z,100011.95
2018-04-22T14:02:23.596Z,100010.05
2018-04-22T14:04:49.448Z,100005.99
2018-04-22T14:07:15.192Z,100006.41
2018-04-22T14:09:40.744Z,100001.24
2018-04-22T14:12:06.433Z,99998.44
2018-04-22T14:14:32.128Z,99986.08
2018-04-22T14:16:57.727Z,99982.95
2018-04-22T14:19:23.308Z,99980.83
2018-04-22T14:21:49.107Z,99985.89
2018-04-22T14:24:14.664Z,99972.49
2018-04-22T14:26:40.208Z,99974.30
2018-04-22T14:29:05.907Z,99971.88
2018-04-22T14:31:31.532Z,99969.30
2018-04-22T14:33:57.110Z,99964.11
2018-04-22T14:36:22.900Z,99959.58
2018-04-22T14:38:48.672Z,99956.89
2018-04-22T14:41:14.250Z,99966.00
2018-04-22T14:43:40.044Z,99955.73
2018-04-22T14:46:08.617Z,99957.30
2018-04-22T14:49:05.447Z,99956.48
2018-04-22T14:51:30.998Z,99944.12
2018-04-22T14:53:56.643Z,99938.94
2018-04-22T14:56:22.367Z,99935.33
2018-04-22T14:58:49.475Z,99938.63
2018-04-22T15:01:15.033Z,99945.52
2018-04-22T15:03:40.746Z,99947.85
2018-04-22T15:06:06.288Z,99937.68
2018-04-22T15:08:34.422Z,99946.03
2018-04-22T15:11:00.251Z,99942.99
2018-04-22T15:13:26.009Z,99935.33
2018-04-22T15:15:51.516Z,99928.11
2018-04-22T15:18:17.218Z,99927.05
2018-04-22T15:20:45.413Z,99925.90
2018-04-22T15:23:10.984Z,99927.75
2018-04-22T15:25:37.118Z,99926.12
2018-04-22T15:28:02.746Z,99915.14
2018-04-22T15:30:28.290Z,99925.78
2018-04-22T15:32:53.970Z,99928.12
2018-04-22T15:35:19.548Z,99918.39
2018-04-22T15:37:45.098Z,99920.17
2018-04-22T15:40:10.936Z,99917.46
2018-04-22T15:42:36.497Z,99915.81
2018-04-22T15:45:02.595Z,99925.20
2018-04-22T15:47:28.162Z,99926.50
2018-04-22T15:49:53.708Z,99930.26
2018-04-22T15:52:19.471Z,99931.80
2018-04-22T15:54:45.026Z,99932.17
2018-04-22T15:57:10.574Z,99933.25
2018-04-22T15:59:36.538Z,99937.79
2018-04-22T16:02:02.111Z,99926.41
2018-04-22T16:04:29.241Z,99932.80
2018-04-22T16:06:54.964Z,99932.81
2018-04-22T16:09:20.507Z,99925.63
2018-04-22T16:11:46.128Z,99944.64
2018-04-22T16:14:11.784Z,99936.03
2018-04-22T16:16:37.341Z,99940.35
2018-04-22T16:19:04.147Z,99933.03
2018-04-22T16:21:29.823Z,99938.56
2018-04-22T16:23:55.510Z,99934.08
2018-04-22T16:26:21.266Z,99939.53
2018-04-22T16:28:46.943Z,99933.11
2018-04-22T16:31:12.723Z,99933.64
2018-04-22T16:33:38.301Z,99934.69
2018-04-22T16:36:03.849Z,99930.80
2018-04-22T16:38:29.564Z,99931.70
2018-04-22T16:40:55.237Z,99932.50
2018-04-22T16:43:20.776Z,99936.70
2018-04-22T16:45:46.384Z,99935.78
2018-04-22T16:48:12.141Z,99934.59
2018-04-22T16:50:37.845Z,99939.23
2018-04-22T16:53:03.385Z,99929.63
2018-04-22T16:55:29.091Z,99929.56
2018-04-22T16:57:54.641Z,99933.78
2018-04-22T17:00:20.385Z,99940.98
2018-04-22T17:02:46.101Z,99945.03
2018-04-22T17:05:11.672Z,99947.77
2018-04-22T17:07:37.229Z,99935.05
2018-04-22T17:10:02.805Z,99948.37
2018-04-22T17:12:28.458Z,99946.70
2018-04-22T17:14:54.154Z,99947.86
2018-04-22T17:17:19.752Z,99946.24
2018-04-22T17:19:45.450Z,99954.78
2018-04-22T17:22:11.155Z,99947.31
2018-04-22T17:24:36.759Z,99950.98
2018-04-22T17:27:02.459Z,99963.05
2018-04-22T17:29:28.031Z,99965.10
2018-04-22T17:31:53.603Z,99964.98
2018-04-22T17:34:19.337Z,99965.15
2018-04-22T17:36:44.873Z,99974.72
2018-04-22T17:39:10.434Z,99971.04
2018-04-22T17:41:36.231Z,99977.23
2018-04-22T17:44:01.797Z,99971.65
2018-04-22T17:46:27.331Z,99980.59
2018-04-22T17:48:53.029Z,99985.37
2018-04-22T17:51:18.597Z,99982.59
2018-04-22T17:53:44.270Z,99974.43
2018-04-22T17:56:09.969Z,99983.25
2018-04-22T17:58:35.579Z,99978.98
2018-04-22T18:01:01.169Z,99985.69
2018-04-22T18:03:26.860Z,99988.34
2018-04-22T18:05:52.385Z,99995.06
2018-04-22T18:08:18.133Z,99992.66
2018-04-22T18:10:43.686Z,99996.23
2018-04-22T18:13:09.379Z,100001.00
2018-04-22T18:15:34.954Z,100006.40
2018-04-22T18:18:00.504Z,99995.73
2018-04-22T18:20:26.568Z,100008.14
2018-04-22T18:22:52.980Z,100007.30
2018-04-22T18:25:18.663Z,100013.15
2018-04-22T18:27:45.020Z,100010.95
2018-04-22T18:30:10.668Z,100021.55
2018-04-22T18:32:36.341Z,100023.04
